Time;durP1;ratioP1;P1;durP2;ratioP2;P2;SDS_P1;SDS_P2;PMS_P1;PMS_P2;Temp;Humidity;BMP_temperature;BMP_pressure;BME280_temperature;BME280_humidity;BME280_pressure;Samples;Min_cycle;Max_cycle;Signal;HPM_P1;HPM_P2
2022/01/15 00:04:19;;;;;;;15.10;3.50;;;;;;;;;;10447665;28;20206;-65
2022/01/15 00:09:20;;;;;;;31.80;3.78;;;;;;;;;;10448116;28;20202;-65
2022/01/15 00:14:33;;;;;;;17.75;2.90;;;;;;;;;;10462135;28;20657;-66
2022/01/15 00:19:41;;;;;;;22.60;5.72;;;;;;;;;;10459515;28;20237;-66
2022/01/15 00:24:43;;;;;;;17.88;3.00;;;;;;;;;;10458434;28;20273;-66
2022/01/15 00:29:45;;;;;;;17.15;3.78;;;;;;;;;;10460553;28;20193;-66
2022/01/15 00:34:46;;;;;;;21.05;3.53;;;;;;;;;;10461328;28;20245;-66
2022/01/15 00:39:47;;;;;;;18.70;3.03;;;;;;;;;;10462151;28;20221;-66
2022/01/15 00:44:50;;;;;;;19.83;2.90;;;;;;;;;;10454816;28;20212;-66
2022/01/15 00:49:51;;;;;;;24.58;3.25;;;;;;;;;;10460782;28;20226;-66
2022/01/15 00:54:52;;;;;;;17.40;2.75;;;;;;;;;;10460307;28;20624;-64
2022/01/15 00:59:53;;;;;;;12.43;2.58;;;;;;;;;;10455707;28;20386;-66
2022/01/15 01:04:54;;;;;;;8.65;2.47;;;;;;;;;;10459421;28;20232;-66
2022/01/15 01:10:08;;;;;;;21.40;5.05;;;;;;;;;;10458888;28;20204;-66
2022/01/15 01:20:48;;;;;;;14.57;3.00;;;;;;;;;;10458517;28;20279;-65
2022/01/15 01:25:54;;;;;;;16.27;2.80;;;;;;;;;;10456843;28;20201;-64
2022/01/15 01:31:02;;;;;;;11.63;2.28;;;;;;;;;;10457489;28;20714;-65
2022/01/15 01:41:06;;;;;;;16.77;3.03;;;;;;;;;;10452582;28;20187;-65
2022/01/15 01:46:30;;;;;;;20.40;2.97;;;;;;;;;;10439456;28;20190;-65
2022/01/15 01:51:31;;;;;;;18.38;3.10;;;;;;;;;;10416020;28;20302;-65
2022/01/15 01:56:32;;;;;;;23.92;3.65;;;;;;;;;;10413876;28;20809;-64
2022/01/15 02:01:33;;;;;;;13.77;3.17;;;;;;;;;;10414141;28;20207;-65
2022/01/15 02:06:37;;;;;;;15.80;2.90;;;;;;;;;;10412897;28;20195;-65
2022/01/15 02:11:39;;;;;;;12.88;3.08;;;;;;;;;;10408211;28;20206;-65
2022/01/15 02:16:40;;;;;;;27.50;3.22;;;;;;;;;;10402429;28;20795;-65
2022/01/15 02:26:48;;;;;;;33.70;5.85;;;;;;;;;;10412360;28;20207;-65
2022/01/15 02:31:49;;;;;;;25.58;7.60;;;;;;;;;;10398885;28;20556;-65
2022/01/15 02:36:51;;;;;;;32.28;8.98;;;;;;;;;;10409703;28;20273;-65
2022/01/15 02:41:52;;;;;;;32.67;9.75;;;;;;;;;;10408252;28;20195;-64
2022/01/15 02:51:54;;;;;;;27.00;6.35;;;;;;;;;;10448431;28;20202;-65
2022/01/15 02:56:55;;;;;;;60.47;7.40;;;;;;;;;;10441500;28;20210;-65
2022/01/15 03:01:56;;;;;;;45.92;8.68;;;;;;;;;;10439168;28;20205;-65
2022/01/15 03:06:57;;;;;;;49.70;7.10;;;;;;;;;;10441065;28;20203;-65
2022/01/15 03:12:02;;;;;;;46.13;5.63;;;;;;;;;;10445066;28;20822;-64
2022/01/15 03:17:03;;;;;;;59.83;7.13;;;;;;;;;;10446227;28;20202;-65
2022/01/15 03:22:04;;;;;;;25.50;5.95;;;;;;;;;;10444950;28;20230;-65
2022/01/15 03:27:05;;;;;;;34.03;5.85;;;;;;;;;;10446903;28;20289;-65
2022/01/15 03:32:07;;;;;;;22.08;7.50;;;;;;;;;;10445548;28;20233;-65
2022/01/15 03:37:08;;;;;;;36.35;5.68;;;;;;;;;;10445091;28;20285;-65
2022/01/15 03:42:11;;;;;;;44.58;4.70;;;;;;;;;;10441920;28;20206;-65
2022/01/15 03:47:13;;;;;;;40.75;4.53;;;;;;;;;;10445932;28;20631;-65
2022/01/15 03:52:14;;;;;;;20.45;4.75;;;;;;;;;;10446184;28;20202;-66
2022/01/15 03:57:15;;;;;;;16.17;3.47;;;;;;;;;;10449709;28;20213;-65
2022/01/15 04:02:16;;;;;;;19.77;3.53;;;;;;;;;;10445764;28;20210;-65
2022/01/15 04:07:17;;;;;;;19.63;3.60;;;;;;;;;;10445613;28;20198;-65
2022/01/15 04:12:18;;;;;;;10.20;3.35;;;;;;;;;;10443575;28;20252;-65
2022/01/15 04:17:19;;;;;;;24.50;4.22;;;;;;;;;;10443585;28;21101;-65
2022/01/15 04:22:20;;;;;;;7.10;4.07;;;;;;;;;;10439927;28;20673;-65
2022/01/15 04:27:22;;;;;;;20.58;4.78;;;;;;;;;;10446414;28;20221;-65
2022/01/15 04:32:24;;;;;;;32.83;4.60;;;;;;;;;;10444495;28;20215;-65
2022/01/15 04:37:32;;;;;;;25.75;4.13;;;;;;;;;;10447832;28;20665;-65
2022/01/15 04:42:33;;;;;;;18.67;4.15;;;;;;;;;;10445145;28;20282;-65
2022/01/15 04:47:38;;;;;;;27.00;4.40;;;;;;;;;;10444695;28;20225;-65
2022/01/15 04:52:40;;;;;;;24.60;4.00;;;;;;;;;;10445629;28;20203;-64
2022/01/15 04:57:42;;;;;;;31.92;4.07;;;;;;;;;;10445595;28;20222;-65
2022/01/15 05:02:44;;;;;;;18.45;3.35;;;;;;;;;;10449361;28;20277;-65
2022/01/15 05:07:45;;;;;;;18.80;2.80;;;;;;;;;;10451506;28;20221;-65
2022/01/15 05:12:48;;;;;;;26.53;2.97;;;;;;;;;;10449473;28;20222;-64
2022/01/15 05:17:54;;;;;;;23.40;2.22;;;;;;;;;;10453434;28;20206;-64
2022/01/15 05:22:55;;;;;;;17.90;2.30;;;;;;;;;;10455946;28;20306;-65
2022/01/15 05:27:56;;;;;;;19.10;1.95;;;;;;;;;;10453295;28;20282;-65
2022/01/15 05:32:57;;;;;;;14.13;1.88;;;;;;;;;;10449394;28;20218;-65
2022/01/15 05:37:59;;;;;;;46.70;2.93;;;;;;;;;;10449864;28;20229;-65
2022/01/15 05:43:00;;;;;;;22.67;1.88;;;;;;;;;;10451331;28;20191;-64
2022/01/15 05:48:01;;;;;;;21.05;2.85;;;;;;;;;;10451819;28;20230;-65
2022/01/15 05:53:03;;;;;;;11.52;2.83;;;;;;;;;;10449290;28;20576;-66
2022/01/15 05:58:07;;;;;;;12.05;3.13;;;;;;;;;;10449574;28;20225;-66
2022/01/15 06:03:08;;;;;;;3.75;2.65;;;;;;;;;;10451924;28;20631;-65
2022/01/15 06:08:09;;;;;;;7.25;2.95;;;;;;;;;;10453579;28;20281;-65
2022/01/15 06:13:10;;;;;;;8.73;3.47;;;;;;;;;;10452967;28;20199;-65
2022/01/15 06:18:11;;;;;;;3.50;3.20;;;;;;;;;;10450958;28;20238;-65
2022/01/15 06:23:12;;;;;;;7.18;4.38;;;;;;;;;;10454245;28;20194;-65
2022/01/15 06:28:13;;;;;;;4.70;3.30;;;;;;;;;;10450222;28;20206;-65
2022/01/15 06:33:14;;;;;;;6.28;4.50;;;;;;;;;;10438788;28;20207;-65
2022/01/15 06:38:15;;;;;;;4.43;3.80;;;;;;;;;;10451987;28;20309;-65
2022/01/15 06:43:16;;;;;;;4.70;4.10;;;;;;;;;;10454950;28;20194;-66
2022/01/15 06:48:17;;;;;;;6.97;4.40;;;;;;;;;;10452222;28;20256;-65
2022/01/15 06:53:18;;;;;;;4.65;4.07;;;;;;;;;;10453095;28;20223;-65
2022/01/15 06:58:20;;;;;;;7.32;4.03;;;;;;;;;;10456011;28;20218;-66
2022/01/15 07:03:21;;;;;;;5.47;3.80;;;;;;;;;;10455226;28;20247;-66
2022/01/15 07:08:22;;;;;;;4.50;3.75;;;;;;;;;;10456613;28;20244;-66
2022/01/15 07:13:23;;;;;;;4.80;4.28;;;;;;;;;;10443062;28;20201;-66
2022/01/15 07:18:24;;;;;;;7.25;4.45;;;;;;;;;;10447480;28;20210;-66
2022/01/15 07:23:25;;;;;;;6.13;4.57;;;;;;;;;;10447448;28;20199;-66
2022/01/15 07:28:27;;;;;;;7.88;4.80;;;;;;;;;;10449702;28;20643;-66
2022/01/15 07:33:29;;;;;;;11.10;5.53;;;;;;;;;;10442463;28;20222;-66
2022/01/15 07:38:30;;;;;;;8.10;5.13;;;;;;;;;;10450790;28;20263;-66
2022/01/15 07:43:31;;;;;;;12.13;5.80;;;;;;;;;;10451240;28;20264;-65
2022/01/15 07:48:32;;;;;;;7.75;5.22;;;;;;;;;;10443889;28;20568;-65
2022/01/15 07:53:34;;;;;;;14.00;6.53;;;;;;;;;;10451856;28;20194;-65
2022/01/15 07:58:35;;;;;;;13.57;6.70;;;;;;;;;;10448519;28;20241;-65
2022/01/15 08:03:36;;;;;;;13.20;6.75;;;;;;;;;;10451802;28;20209;-65
2022/01/15 08:08:37;;;;;;;16.83;7.03;;;;;;;;;;10451585;28;20205;-65
2022/01/15 08:13:38;;;;;;;17.27;7.35;;;;;;;;;;10454742;28;20197;-65
2022/01/15 08:18:39;;;;;;;19.40;8.18;;;;;;;;;;10450171;28;20221;-65
2022/01/15 08:23:40;;;;;;;18.33;9.13;;;;;;;;;;10453646;28;20183;-65
2022/01/15 08:28:41;;;;;;;21.55;11.75;;;;;;;;;;10451017;28;20209;-65
2022/01/15 08:33:42;;;;;;;24.65;13.20;;;;;;;;;;10459249;28;20211;-64
2022/01/15 08:38:43;;;;;;;24.70;12.95;;;;;;;;;;10457514;28;20725;-64
2022/01/15 08:43:44;;;;;;;25.48;11.90;;;;;;;;;;10462160;28;20190;-65
2022/01/15 08:48:45;;;;;;;21.15;10.82;;;;;;;;;;10456884;28;20225;-64
2022/01/15 08:53:46;;;;;;;25.63;10.98;;;;;;;;;;10459827;28;20233;-65
2022/01/15 08:58:47;;;;;;;24.50;10.10;;;;;;;;;;10461756;28;20413;-64
2022/01/15 09:03:48;;;;;;;17.15;9.60;;;;;;;;;;10458258;28;20211;-64
2022/01/15 09:08:50;;;;;;;19.13;10.35;;;;;;;;;;10455473;28;20194;-65
2022/01/15 09:13:51;;;;;;;24.90;10.05;;;;;;;;;;10456063;28;20653;-65
2022/01/15 09:18:52;;;;;;;28.60;12.52;;;;;;;;;;10444001;28;20209;-63
2022/01/15 09:23:53;;;;;;;26.98;13.32;;;;;;;;;;10459408;28;20189;-66
2022/01/15 09:34:13;;;;;;;18.70;9.93;;;;;;;;;;10454329;28;20944;-65
2022/01/15 09:39:14;;;;;;;15.95;7.72;;;;;;;;;;10459518;28;20218;-64
2022/01/15 09:44:16;;;;;;;17.42;8.63;;;;;;;;;;10458826;28;20197;-63
2022/01/15 09:49:19;;;;;;;16.67;8.00;;;;;;;;;;10456552;28;20276;-65
2022/01/15 09:54:20;;;;;;;16.65;7.53;;;;;;;;;;10453402;28;20195;-63
2022/01/15 09:59:21;;;;;;;19.50;7.47;;;;;;;;;;10455150;28;20233;-65
2022/01/15 10:04:22;;;;;;;17.33;6.25;;;;;;;;;;10461132;28;21020;-65
2022/01/15 10:09:23;;;;;;;16.15;5.90;;;;;;;;;;10463137;28;20206;-65
2022/01/15 10:14:29;;;;;;;15.25;5.00;;;;;;;;;;10453863;28;20653;-65
2022/01/15 10:19:34;;;;;;;19.15;4.60;;;;;;;;;;10461164;28;20274;-64
2022/01/15 10:24:36;;;;;;;14.77;3.83;;;;;;;;;;10458055;28;20187;-65
2022/01/15 10:29:38;;;;;;;20.48;3.50;;;;;;;;;;10456424;28;20191;-65
2022/01/15 10:34:42;;;;;;;20.77;3.40;;;;;;;;;;10458900;28;20209;-65
2022/01/15 10:40:00;;;;;;;20.08;3.83;;;;;;;;;;10453534;28;20210;-65
2022/01/15 10:45:07;;;;;;;17.38;4.03;;;;;;;;;;10454132;28;20885;-64
2022/01/15 10:50:09;;;;;;;22.02;3.83;;;;;;;;;;10460568;28;20260;-64
2022/01/15 10:55:15;;;;;;;20.27;3.60;;;;;;;;;;10453787;28;20191;-65
2022/01/15 11:00:18;;;;;;;24.77;3.33;;;;;;;;;;10453929;28;20229;-64
2022/01/15 11:05:21;;;;;;;19.52;3.20;;;;;;;;;;10446240;28;20208;-64
2022/01/15 11:10:22;;;;;;;18.15;2.78;;;;;;;;;;10438829;28;20194;-65
2022/01/15 11:15:23;;;;;;;21.52;3.50;;;;;;;;;;10436183;28;20233;-66
2022/01/15 11:20:28;;;;;;;14.93;2.22;;;;;;;;;;10439019;28;20316;-66
2022/01/15 11:25:29;;;;;;;18.00;2.50;;;;;;;;;;10430208;28;20570;-65
2022/01/15 11:30:30;;;;;;;22.00;3.03;;;;;;;;;;10434632;28;20685;-65
2022/01/15 11:35:40;;;;;;;11.27;2.63;;;;;;;;;;10449087;28;20202;-65
2022/01/15 11:40:46;;;;;;;22.83;2.42;;;;;;;;;;10449363;28;20301;-66
2022/01/15 11:45:47;;;;;;;17.90;2.22;;;;;;;;;;10448649;28;20186;-66
2022/01/15 11:51:07;;;;;;;15.25;2.10;;;;;;;;;;10442370;28;20765;-65
2022/01/15 11:56:15;;;;;;;18.13;3.08;;;;;;;;;;10451519;28;20701;-65
2022/01/15 12:01:37;;;;;;;12.95;2.63;;;;;;;;;;10446797;28;20224;-64
2022/01/15 12:06:57;;;;;;;20.27;4.35;;;;;;;;;;10457054;28;20285;-63
2022/01/15 12:11:59;;;;;;;16.20;2.60;;;;;;;;;;10456854;28;20678;-64
2022/01/15 12:17:19;;;;;;;11.95;2.85;;;;;;;;;;10456588;28;20222;-64
2022/01/15 12:22:39;;;;;;;16.75;2.60;;;;;;;;;;10446064;28;20181;-64
2022/01/15 12:27:41;;;;;;;17.90;2.67;;;;;;;;;;10439039;28;20745;-63
2022/01/15 12:32:43;;;;;;;15.20;2.35;;;;;;;;;;10437109;28;20238;-62
2022/01/15 12:37:59;;;;;;;14.02;1.80;;;;;;;;;;10442962;28;20685;-64
2022/01/15 12:43:02;;;;;;;9.70;1.73;;;;;;;;;;10457619;28;20221;-64
2022/01/15 12:48:03;;;;;;;16.83;2.67;;;;;;;;;;10452379;28;20746;-64
2022/01/15 12:53:05;;;;;;;12.00;2.83;;;;;;;;;;10435507;28;20199;-64
2022/01/15 12:58:06;;;;;;;19.38;3.88;;;;;;;;;;10438199;28;20218;-63
2022/01/15 13:03:09;;;;;;;15.38;2.72;;;;;;;;;;10435270;28;20257;-63
2022/01/15 13:08:15;;;;;;;18.38;2.50;;;;;;;;;;10436361;28;20294;-63
2022/01/15 13:13:17;;;;;;;12.63;2.03;;;;;;;;;;10444070;28;20210;-64
2022/01/15 13:18:19;;;;;;;13.40;2.92;;;;;;;;;;10432759;28;20214;-64
2022/01/15 13:23:20;;;;;;;11.80;1.95;;;;;;;;;;10434017;28;20258;-63
2022/01/15 13:28:21;;;;;;;17.33;2.38;;;;;;;;;;10435673;28;20193;-63
2022/01/15 13:33:32;;;;;;;12.93;2.67;;;;;;;;;;10438795;28;20633;-63
2022/01/15 13:38:35;;;;;;;17.23;2.83;;;;;;;;;;10435799;28;20210;-62
2022/01/15 13:43:36;;;;;;;11.52;3.58;;;;;;;;;;10455274;28;20202;-63
2022/01/15 13:48:37;;;;;;;13.18;2.95;;;;;;;;;;10442077;28;20230;-63
2022/01/15 13:53:41;;;;;;;16.08;3.28;;;;;;;;;;10440221;28;21576;-64
2022/01/15 13:58:43;;;;;;;9.25;2.50;;;;;;;;;;10454453;28;20261;-63
2022/01/15 14:03:44;;;;;;;16.13;2.95;;;;;;;;;;10450282;28;20327;-63
2022/01/15 14:08:45;;;;;;;14.07;3.63;;;;;;;;;;10450582;28;20202;-63
2022/01/15 14:13:46;;;;;;;13.55;2.15;;;;;;;;;;10453763;28;20199;-65
2022/01/15 14:18:54;;;;;;;10.13;2.95;;;;;;;;;;10450862;28;20731;-64
2022/01/15 14:23:55;;;;;;;16.80;3.03;;;;;;;;;;10457354;28;20198;-63
2022/01/15 14:28:57;;;;;;;11.48;2.20;;;;;;;;;;10452566;28;20661;-64
2022/01/15 14:33:58;;;;;;;9.70;2.65;;;;;;;;;;10450781;28;20230;-64
2022/01/15 14:39:04;;;;;;;18.48;3.15;;;;;;;;;;10451140;28;20273;-64
2022/01/15 14:44:05;;;;;;;11.80;3.38;;;;;;;;;;10455008;28;20274;-63
2022/01/15 14:49:06;;;;;;;14.35;3.80;;;;;;;;;;10457150;28;20233;-64
2022/01/15 14:54:07;;;;;;;10.98;3.20;;;;;;;;;;10453532;28;20252;-63
2022/01/15 14:59:08;;;;;;;8.00;3.05;;;;;;;;;;10453438;28;21174;-64
2022/01/15 15:04:09;;;;;;;10.20;3.97;;;;;;;;;;10454730;28;20291;-64
2022/01/15 15:09:11;;;;;;;11.75;4.43;;;;;;;;;;10450772;28;20206;-64
2022/01/15 15:14:12;;;;;;;16.00;4.88;;;;;;;;;;10452899;28;20201;-64
2022/01/15 15:19:13;;;;;;;13.38;3.45;;;;;;;;;;10451728;28;20205;-64
2022/01/15 15:24:14;;;;;;;9.43;3.20;;;;;;;;;;10452601;28;20749;-64
2022/01/15 15:29:17;;;;;;;15.15;4.63;;;;;;;;;;10453312;28;20293;-64
2022/01/15 15:34:18;;;;;;;14.40;3.58;;;;;;;;;;10448497;28;20587;-64
2022/01/15 15:39:19;;;;;;;20.30;5.45;;;;;;;;;;10450961;28;20226;-64
2022/01/15 15:44:20;;;;;;;20.80;4.97;;;;;;;;;;10450801;28;20187;-63
2022/01/15 15:49:22;;;;;;;22.90;10.88;;;;;;;;;;10456073;28;20218;-64
2022/01/15 15:54:23;;;;;;;15.43;5.43;;;;;;;;;;10454527;28;20271;-64
2022/01/15 15:59:24;;;;;;;17.90;5.10;;;;;;;;;;10449220;28;20208;-63
2022/01/15 16:04:25;;;;;;;20.95;5.68;;;;;;;;;;10434958;28;20211;-64
2022/01/15 16:09:26;;;;;;;15.82;4.78;;;;;;;;;;10450865;28;20232;-65
2022/01/15 16:14:27;;;;;;;22.90;6.50;;;;;;;;;;10451216;28;20621;-65
2022/01/15 16:19:28;;;;;;;19.17;5.18;;;;;;;;;;10434378;28;20559;-63
2022/01/15 16:24:30;;;;;;;19.15;6.25;;;;;;;;;;10445681;28;20179;-65
2022/01/15 16:29:32;;;;;;;19.73;6.43;;;;;;;;;;10449934;28;20686;-64
2022/01/15 16:34:34;;;;;;;13.52;6.28;;;;;;;;;;10454656;28;20222;-63
2022/01/15 16:39:35;;;;;;;20.88;7.85;;;;;;;;;;10453977;28;20211;-65
2022/01/15 16:44:38;;;;;;;19.50;5.72;;;;;;;;;;10448153;28;20283;-64
2022/01/15 16:49:39;;;;;;;25.25;5.88;;;;;;;;;;10447624;28;20214;-64
2022/01/15 16:54:40;;;;;;;23.38;6.53;;;;;;;;;;10453255;28;20198;-65
2022/01/15 16:59:41;;;;;;;18.88;9.02;;;;;;;;;;10452166;28;20637;-66
2022/01/15 17:04:42;;;;;;;24.08;7.03;;;;;;;;;;10453875;28;20296;-64
2022/01/15 17:09:43;;;;;;;16.55;6.30;;;;;;;;;;10451610;28;20202;-63
2022/01/15 17:14:44;;;;;;;21.25;8.07;;;;;;;;;;10454734;28;20195;-64
2022/01/15 17:19:47;;;;;;;19.55;7.75;;;;;;;;;;10452438;28;20766;-64
2022/01/15 17:24:48;;;;;;;22.27;8.15;;;;;;;;;;10449540;28;20198;-64
2022/01/15 17:29:49;;;;;;;19.83;6.53;;;;;;;;;;10451153;28;22208;-64
2022/01/15 17:34:51;;;;;;;19.23;7.13;;;;;;;;;;10450469;28;20222;-65
2022/01/15 17:39:53;;;;;;;22.30;8.35;;;;;;;;;;10449412;28;20213;-65
2022/01/15 17:44:54;;;;;;;18.67;8.43;;;;;;;;;;10450765;28;20194;-65
2022/01/15 17:49:55;;;;;;;22.73;6.72;;;;;;;;;;10450340;28;20950;-65
2022/01/15 17:54:56;;;;;;;25.27;8.02;;;;;;;;;;10449714;28;20198;-66
2022/01/15 17:59:57;;;;;;;17.35;7.40;;;;;;;;;;10448304;28;20203;-66
2022/01/15 18:04:58;;;;;;;29.08;8.90;;;;;;;;;;10448424;28;20877;-65
2022/01/15 18:10:02;;;;;;;34.58;10.48;;;;;;;;;;10440477;28;20187;-66
2022/01/15 18:15:04;;;;;;;25.67;8.55;;;;;;;;;;10449244;28;20193;-63
2022/01/15 18:20:05;;;;;;;21.77;8.57;;;;;;;;;;10450895;28;20215;-65
2022/01/15 18:25:07;;;;;;;25.25;9.88;;;;;;;;;;10450648;28;20206;-64
2022/01/15 18:30:09;;;;;;;18.67;10.85;;;;;;;;;;10447255;28;20652;-63
2022/01/15 18:35:10;;;;;;;24.83;11.32;;;;;;;;;;10429098;28;20565;-63
2022/01/15 18:40:12;;;;;;;27.30;11.88;;;;;;;;;;10448102;28;20213;-64
2022/01/15 18:45:14;;;;;;;29.08;12.15;;;;;;;;;;10448426;28;20198;-65
2022/01/15 18:50:16;;;;;;;33.17;14.07;;;;;;;;;;10447078;28;20831;-65
2022/01/15 18:55:18;;;;;;;27.02;13.57;;;;;;;;;;10445007;28;20206;-63
2022/01/15 19:00:21;;;;;;;26.38;11.30;;;;;;;;;;10452824;28;20751;-64
2022/01/15 19:05:22;;;;;;;28.48;11.88;;;;;;;;;;10448372;28;20784;-63
2022/01/15 19:10:23;;;;;;;25.45;12.27;;;;;;;;;;10448548;28;20203;-65
2022/01/15 19:15:29;;;;;;;26.20;12.43;;;;;;;;;;10447257;28;20327;-64
2022/01/15 19:20:30;;;;;;;24.70;10.60;;;;;;;;;;10443938;28;20210;-63
2022/01/15 19:25:31;;;;;;;28.92;11.02;;;;;;;;;;10447490;28;20260;-63
2022/01/15 19:30:33;;;;;;;71.15;36.08;;;;;;;;;;10442931;28;20301;-63
2022/01/15 19:35:34;;;;;;;65.82;35.67;;;;;;;;;;10447566;28;20186;-65
2022/01/15 19:40:35;;;;;;;28.55;16.42;;;;;;;;;;10448282;28;20288;-65
2022/01/15 19:45:37;;;;;;;27.45;13.38;;;;;;;;;;10444618;28;20198;-63
2022/01/15 19:50:39;;;;;;;22.63;12.25;;;;;;;;;;10449639;28;20263;-65
2022/01/15 19:55:40;;;;;;;24.58;12.75;;;;;;;;;;10439436;28;20670;-64
2022/01/15 20:00:43;;;;;;;22.75;13.55;;;;;;;;;;10447934;28;20272;-63
2022/01/15 20:05:44;;;;;;;27.75;15.25;;;;;;;;;;10444976;28;20194;-64
2022/01/15 20:10:46;;;;;;;27.65;13.82;;;;;;;;;;10443753;28;20199;-64
2022/01/15 20:15:47;;;;;;;25.63;14.15;;;;;;;;;;10425521;28;20311;-64
2022/01/15 20:20:48;;;;;;;23.42;14.85;;;;;;;;;;10433808;28;20210;-62
2022/01/15 20:25:49;;;;;;;24.10;14.10;;;;;;;;;;10445431;28;21414;-62
2022/01/15 20:30:51;;;;;;;24.13;13.70;;;;;;;;;;10455932;28;21611;-66
2022/01/15 20:35:53;;;;;;;25.73;14.55;;;;;;;;;;10441543;28;20190;-63
2022/01/15 20:40:54;;;;;;;21.85;14.32;;;;;;;;;;10450765;28;20206;-64
2022/01/15 20:45:55;;;;;;;25.02;14.30;;;;;;;;;;10453215;28;20627;-63
2022/01/15 20:50:57;;;;;;;28.73;14.88;;;;;;;;;;10438380;28;20282;-64
2022/01/15 20:55:58;;;;;;;28.80;14.65;;;;;;;;;;10450879;28;20677;-64
2022/01/15 21:00:59;;;;;;;24.77;13.98;;;;;;;;;;10450032;28;20317;-63
2022/01/15 21:06:02;;;;;;;26.40;14.07;;;;;;;;;;10450027;28;20681;-63
2022/01/15 21:11:04;;;;;;;27.50;15.20;;;;;;;;;;10452294;28;20260;-65
2022/01/15 21:16:05;;;;;;;25.92;15.00;;;;;;;;;;10448506;28;20217;-64
2022/01/15 21:21:06;;;;;;;30.55;16.52;;;;;;;;;;10452445;28;20227;-63
2022/01/15 21:26:09;;;;;;;28.10;16.98;;;;;;;;;;10447470;28;21080;-64
2022/01/15 21:31:10;;;;;;;20.98;14.45;;;;;;;;;;10449733;28;20297;-63
2022/01/15 21:36:11;;;;;;;28.10;15.70;;;;;;;;;;10437512;28;20592;-64
2022/01/15 21:41:12;;;;;;;21.92;13.98;;;;;;;;;;10449311;28;20247;-62
2022/01/15 21:46:15;;;;;;;23.42;15.50;;;;;;;;;;10449659;28;20197;-62
2022/01/15 21:51:16;;;;;;;21.38;14.05;;;;;;;;;;10447041;28;20305;-65
2022/01/15 21:56:17;;;;;;;22.08;14.43;;;;;;;;;;10446559;28;20226;-64
2022/01/15 22:01:18;;;;;;;25.20;14.85;;;;;;;;;;10444806;28;20238;-63
2022/01/15 22:06:21;;;;;;;23.88;14.13;;;;;;;;;;10446987;28;20197;-61
2022/01/15 22:11:24;;;;;;;25.70;15.60;;;;;;;;;;10449149;28;20279;-63
2022/01/15 22:16:26;;;;;;;24.42;15.10;;;;;;;;;;10449641;28;20203;-62
2022/01/15 22:21:27;;;;;;;26.23;14.45;;;;;;;;;;10447800;28;20209;-63
2022/01/15 22:26:30;;;;;;;28.17;15.48;;;;;;;;;;10450774;28;20198;-64
2022/01/15 22:31:31;;;;;;;23.85;14.55;;;;;;;;;;10446665;28;20245;-63
2022/01/15 22:36:32;;;;;;;26.75;15.32;;;;;;;;;;10450759;28;20243;-63
2022/01/15 22:41:34;;;;;;;25.10;15.70;;;;;;;;;;10450224;28;20221;-63
2022/01/15 22:46:35;;;;;;;23.42;14.57;;;;;;;;;;10438828;28;20195;-62
2022/01/15 22:51:37;;;;;;;25.35;15.52;;;;;;;;;;10451276;28;20371;-61
2022/01/15 22:56:38;;;;;;;23.67;14.60;;;;;;;;;;10448195;28;20207;-63
2022/01/15 23:01:39;;;;;;;23.95;14.52;;;;;;;;;;10448771;28;20228;-64
2022/01/15 23:06:40;;;;;;;23.80;14.60;;;;;;;;;;10446917;28;20229;-64
2022/01/15 23:11:47;;;;;;;26.55;15.35;;;;;;;;;;10452654;28;20217;-65
2022/01/15 23:21:52;;;;;;;23.85;15.35;;;;;;;;;;10453535;28;20198;-65
2022/01/15 23:26:54;;;;;;;28.52;16.05;;;;;;;;;;10450797;28;20705;-64
2022/01/15 23:31:56;;;;;;;24.77;16.10;;;;;;;;;;10450751;28;21336;-65
2022/01/15 23:36:57;;;;;;;28.63;16.75;;;;;;;;;;10452036;28;20187;-64
2022/01/15 23:41:58;;;;;;;28.25;17.00;;;;;;;;;;10457281;28;20219;-62
2022/01/15 23:46:59;;;;;;;31.10;17.63;;;;;;;;;;10457198;28;20678;-64
2022/01/15 23:52:00;;;;;;;33.53;18.17;;;;;;;;;;10451860;28;20194;-64
2022/01/15 23:57:01;;;;;;;31.58;18.25;;;;;;;;;;10446058;28;20309;-64
